Terminal Aerodrome Forecast
Issued by NWS Midland/Odessa, TX

Home | Current Version | Previous Version | Text Only | Print | Product List | Glossary On
Versions: 1 2 3 4 5 6 7 8 9 10 11 12 13 14 15 16 17 18 19
000
FTUS44 KMAF 210500
TAFMAF
TAF
KMAF 210526Z 2106/2206 19007KT 5SM BR OVC020
      TEMPO 2110/2114 2SM BR OVC006
     FM211500 22009KT P6SM SCT020
     FM211800 25012G18KT P6SM FEW250
     FM220000 23009KT P6SM SKC=

USA.gov is the U.S. government's official web portal to all federal, state and local government web resources and services.